Portada
METAR-TAF:

METAR-TAF

Aeroports :

Simla, Índia

latitud: 31-04-54N, longitud: 77-04-05E, altitud: 1546 m

Observació

L'informe es va fer fa 15 hores i 45 minuts, a les 06:30 UTC
Vent 3 kt del Sud-Oest
Temperatura 19°C
Humitat 56%
Pressió 1023 hPa
Visibilitat: 5000 m
Escasses núvols a una alçada de 3000 ft
calitja

METAR: VISM 270630Z 23003KT 5000 HZ FEW030 19/10 Q1023

Hora: 03:45 (22:15 UTC)

Pronòstic

L'informe es va fer fa 17 hores i 15 minuts, a les 05:00 UTC
Pronòstic vàlid del 27 a les 06 UTC al 27 a les 15 UTC
Vent 5 kt del Oest/Sud-Oest
Visibilitat: 5000 m
Escasses núvols a una alçada de 3000 ft
Núvols disperses a una alçada de 10000 ft
calitja
Evolucionant progressivament
l' 27 a les 12 UTC al 27 a les 14 UTC
Vent 5 kt del Nord/Nord-Est
Visibilitat: 3000 m
Escasses núvols a una alçada de 10000 ft
boirina

TAF: VISM 270500Z 2706/2715 25005KT 5000 HZ FEW030 SCT100 BECMG 2712/2714 02005KT 3000 BR FEW100

Observacions i pronòstics meteorològics de més de 4000 aeroports (METAR i TAF).

Les estacions disponibles són els punts grocs i vermells al mapa.

Posi el ratolí al punt desitjat per veure el nom de l'estació.

Feu clic per veure les observacions i els pronòstics meteorològics.

Per canviar el mapa: feu clic els botons verds amb una creu de color negre per apropar; al botó verd amb un guió per allunyar la imatge; o en les fletxes verdes per a mapes adjacents.


METAR-TAF: